メインページ
METAR-TAF:

METAR-TAF

空港 :

スーセントマリー, オンタリオ州, カナダ

緯度: 46-29N, 経度: 084-30W, 海抜: 187m

現時点の気象観測

当レポートは22分前の22:00(UTC)に作成
西の風 8kt
気温 -8°C
湿度 57%
気圧 1031 hPa
視程: 40.2km
高度3800ftの雲は散在している

METAR: CYAM 202200Z 27008KT 25SM SCT038 M08/M15 A3045 RMK CU2 SLP332

時間: 17:22 (22:22 UTC)

予報

当レポートは2時間44分前の19:38(UTC)に作成
予報は20日の 20時(UTC)から 21日の 08時(UTC)まで有効
西/南西の風 8kt
視程: 10km
高度2000ftの雲は散在している
20日の 20時(UTC)から 21日の 08時(UTC)まで一時的に
高度2000ftの千切れ雲あり

TAF: CYAM 201938Z 2020/2108 25008KT P6SM SCT020 TEMPO 2020/2108 BKN020 RMK NXT FCST BY 210200Z

4,000以上の空港の気象観測と天気予報(METAR報とTAF報)

利用可能な観測所は地図上に黄色い丸と赤い丸で示す。

丸の上にカーソルを重ねると観測所名を参照できる。

次にクリックすると気象観測と天気予報を参照できる。

マップの切り替え:黒色「×」印の緑ボタンをクリックして拡大、「-」印の緑ボタンをクリックして縮小、緑色の三角印をクリックして隣りの地図に切り替え


METAR-TAF: